Time;durP1;ratioP1;P1;durP2;ratioP2;P2;SDS_P1;SDS_P2;PMS_P1;PMS_P2;Temp;Humidity;BMP_temperature;BMP_pressure;BME280_temperature;BME280_humidity;BME280_pressure;Samples;Min_cycle;Max_cycle;Signal;HPM_P1;HPM_P2
2022/10/12 00:01:22;;;;;;;7.10;4.15;;;;;;;15.10;100.00;100726.88;5112038;28;20114;-75
2022/10/12 00:03:48;;;;;;;6.22;4.50;;;;;;;15.20;100.00;100746.16;5111971;28;20063;-75
2022/10/12 00:06:17;;;;;;;5.03;4.30;;;;;;;15.15;100.00;100730.09;5111736;28;20027;-75
2022/10/12 00:08:44;;;;;;;8.10;4.82;;;;;;;15.08;100.00;100713.28;5111776;28;20036;-74
2022/10/12 00:11:16;;;;;;;8.63;5.28;;;;;;;15.52;100.00;100778.38;5111705;28;20043;-75
2022/10/12 00:13:41;;;;;;;6.97;5.50;;;;;;;15.23;100.00;100761.41;5111439;28;20039;-74
2022/10/12 00:16:09;;;;;;;8.70;5.43;;;;;;;15.48;100.00;100767.41;5111446;28;20473;-75
2022/10/12 00:18:35;;;;;;;10.02;5.47;;;;;;;15.38;100.00;100772.88;5111340;28;20598;-74
2022/10/12 00:21:05;;;;;;;8.68;5.65;;;;;;;15.19;100.00;100710.38;5111149;28;20028;-74
2022/10/12 00:23:30;;;;;;;9.55;5.13;;;;;;;15.44;100.00;100726.56;5111313;28;20080;-73
2022/10/12 00:26:00;;;;;;;8.38;5.55;;;;;;;15.50;100.00;100778.44;5109917;28;20817;-73
2022/10/12 00:28:26;;;;;;;11.15;5.70;;;;;;;15.42;100.00;100772.75;5111411;28;20019;-73
2022/10/12 00:30:51;;;;;;;10.05;6.22;;;;;;;15.15;100.00;100729.28;5111982;28;20054;-73
2022/10/12 00:33:16;;;;;;;6.75;5.35;;;;;;;15.39;100.00;100767.69;5111041;28;20055;-73
2022/10/12 00:35:42;;;;;;;9.43;5.60;;;;;;;15.23;100.00;100732.44;5111030;28;20030;-73
2022/10/12 00:38:07;;;;;;;8.43;5.75;;;;;;;15.30;100.00;100736.44;5111844;28;20032;-76
2022/10/12 00:40:33;;;;;;;11.65;7.05;;;;;;;15.34;100.00;100743.97;5112741;28;20044;-73
2022/10/12 00:42:58;;;;;;;10.52;7.18;;;;;;;15.47;100.00;100783.66;5115576;28;20035;-73
2022/10/12 00:45:25;;;;;;;11.82;7.10;;;;;;;15.68;100.00;100784.66;5115322;28;20031;-73
2022/10/12 00:47:55;;;;;;;11.38;6.78;;;;;;;15.30;100.00;100732.16;5115467;28;20497;-73
2022/10/12 00:50:31;;;;;;;10.75;6.70;;;;;;;15.39;100.00;100770.25;5114641;28;20073;-74
2022/10/12 00:53:14;;;;;;;9.20;6.65;;;;;;;15.47;100.00;100785.38;5115214;28;20543;-76
2022/10/12 00:55:47;;;;;;;10.07;6.40;;;;;;;15.31;100.00;100759.44;5115339;28;20034;-75
2022/10/12 00:58:13;;;;;;;11.32;7.00;;;;;;;15.50;100.00;100777.59;5115208;28;20027;-75
2022/10/12 01:00:39;;;;;;;9.43;5.45;;;;;;;14.91;100.00;100743.78;5115723;28;20050;-74
2022/10/12 01:03:08;;;;;;;10.35;4.70;;;;;;;15.15;100.00;100740.34;5115075;28;20080;-75
2022/10/12 01:05:35;;;;;;;5.75;4.20;;;;;;;15.14;100.00;100743.81;5115137;28;20035;-73
2022/10/12 01:08:01;;;;;;;7.57;4.70;;;;;;;15.42;100.00;100783.00;5115167;28;20067;-74
2022/10/12 01:10:27;;;;;;;7.38;4.80;;;;;;;15.45;100.00;100784.63;5113941;28;20028;-74
2022/10/12 01:12:53;;;;;;;9.50;4.65;;;;;;;15.26;100.00;100781.81;5114932;28;20140;-74
2022/10/12 01:15:20;;;;;;;8.00;4.65;;;;;;;15.48;100.00;100800.75;5113750;28;20034;-74
2022/10/12 01:17:48;;;;;;;8.05;4.40;;;;;;;15.61;100.00;100794.28;5113892;28;20024;-75
2022/10/12 01:20:35;;;;;;;6.65;4.50;;;;;;;15.51;100.00;100792.94;5115082;28;20465;-75
2022/10/12 01:23:15;;;;;;;7.20;4.15;;;;;;;15.32;100.00;100786.75;5115107;28;20039;-74
2022/10/12 01:25:56;;;;;;;7.75;4.57;;;;;;;15.46;100.00;100789.69;5113663;28;20122;-74
2022/10/12 01:28:33;;;;;;;7.10;4.65;;;;;;;15.49;100.00;100792.16;5114938;28;20035;-75
2022/10/12 01:31:05;;;;;;;6.97;4.60;;;;;;;14.88;100.00;100750.69;5114882;28;20081;-74
2022/10/12 01:33:47;;;;;;;7.78;4.80;;;;;;;15.56;100.00;100792.78;5114014;28;20028;-74
2022/10/12 01:36:37;;;;;;;7.93;4.95;;;;;;;15.13;100.00;100743.88;5113656;28;20577;-75
2022/10/12 01:39:06;;;;;;;7.70;4.35;;;;;;;15.47;100.00;100788.78;5114963;28;20523;-74
2022/10/12 01:41:37;;;;;;;6.43;4.10;;;;;;;14.99;100.00;100721.31;5114822;28;20043;-73
2022/10/12 01:44:03;;;;;;;6.32;4.10;;;;;;;15.06;100.00;100747.53;5113569;28;20067;-73
2022/10/12 01:46:29;;;;;;;6.78;3.30;;;;;;;15.37;100.00;100795.09;5113958;28;20058;-73
2022/10/12 01:48:57;;;;;;;7.00;3.67;;;;;;;15.45;100.00;100787.19;5113294;28;20032;-74
2022/10/12 01:52:24;;;;;;;6.00;3.70;;;;;;;15.55;100.00;100793.66;5112616;28;20266;-73
2022/10/12 01:55:01;;;;;;;7.30;3.50;;;;;;;15.53;100.00;100800.56;5029417;28;20123;-74
2022/10/12 01:57:40;;;;;;;5.50;3.22;;;;;;;15.46;100.00;100810.22;5113686;28;20020;-75
2022/10/12 02:00:10;;;;;;;4.82;2.80;;;;;;;15.18;100.00;100742.81;5114250;28;20024;-73
2022/10/12 02:03:00;;;;;;;5.55;2.67;;;;;;;15.43;100.00;100810.28;5112431;28;20028;-74
2022/10/12 02:05:36;;;;;;;5.10;2.65;;;;;;;15.58;100.00;100811.50;5114103;28;20113;-73
2022/10/12 02:08:31;;;;;;;4.65;2.40;;;;;;;15.48;100.00;100805.88;5112370;28;20516;-73
2022/10/12 02:11:06;;;;;;;5.70;2.53;;;;;;;14.88;100.00;100743.00;5067715;28;20122;-75
2022/10/12 02:13:39;;;;;;;5.90;2.60;;;;;;;15.31;100.00;100779.94;5113980;28;20031;-72
2022/10/12 02:16:10;;;;;;;4.55;2.50;;;;;;;15.55;100.00;100804.75;5109226;28;20035;-73
2022/10/12 02:18:41;;;;;;;6.53;2.42;;;;;;;15.53;100.00;100810.81;5093622;28;20036;-74
2022/10/12 02:21:08;;;;;;;7.03;2.40;;;;;;;15.08;100.00;100731.22;5092235;28;20032;-73
2022/10/12 02:23:36;;;;;;;3.85;2.35;;;;;;;15.35;100.00;100799.44;5093212;28;20466;-73
2022/10/12 02:26:03;;;;;;;7.53;2.75;;;;;;;15.17;100.00;100756.50;5092063;28;20017;-73
2022/10/12 02:28:33;;;;;;;8.25;2.40;;;;;;;15.35;100.00;100788.38;5093299;28;20024;-73
2022/10/12 02:31:06;;;;;;;4.35;2.40;;;;;;;15.18;100.00;100794.06;5108681;28;20512;-74
2022/10/12 02:33:39;;;;;;;6.30;2.50;;;;;;;14.97;100.00;100738.44;5093003;28;20024;-72
2022/10/12 02:36:10;;;;;;;4.03;2.20;;;;;;;15.38;100.00;100808.75;5092548;28;20031;-73
2022/10/12 02:38:47;;;;;;;5.18;2.70;;;;;;;14.85;100.00;100743.97;5093221;28;20016;-72
2022/10/12 02:41:23;;;;;;;6.00;2.95;;;;;;;15.59;100.00;100810.59;5093258;28;20056;-73
2022/10/12 02:44:01;;;;;;;5.60;3.03;;;;;;;15.47;100.00;100786.22;5093160;28;20032;-74
2022/10/12 02:46:29;;;;;;;5.53;2.80;;;;;;;15.55;100.00;100819.28;5092880;28;20035;-73
2022/10/12 02:48:57;;;;;;;5.55;2.60;;;;;;;15.43;100.00;100807.72;5092813;28;20455;-73
2022/10/12 02:51:25;;;;;;;5.78;2.70;;;;;;;14.80;100.00;100761.19;5091180;28;20448;-73
2022/10/12 02:53:51;;;;;;;5.00;3.05;;;;;;;15.41;100.00;100806.91;5092458;28;20032;-73
2022/10/12 02:56:17;;;;;;;6.43;3.17;;;;;;;15.31;100.00;100797.06;5092464;28;20089;-73
2022/10/12 02:58:44;;;;;;;4.45;2.85;;;;;;;15.27;100.00;100798.03;5092494;28;20028;-73
2022/10/12 03:01:10;;;;;;;4.80;2.88;;;;;;;15.27;100.00;100815.97;5090853;28;20055;-75
2022/10/12 03:03:36;;;;;;;5.68;2.97;;;;;;;15.17;100.00;100812.88;5107679;28;20121;-73
2022/10/12 03:06:01;;;;;;;4.28;2.90;;;;;;;15.03;100.00;100766.41;5092450;28;20034;-73
2022/10/12 03:08:27;;;;;;;7.80;3.35;;;;;;;15.32;100.00;100789.31;5092360;28;20020;-74
2022/10/12 03:10:52;;;;;;;5.70;3.03;;;;;;;15.45;100.00;100803.38;5091108;28;20123;-73
2022/10/12 03:13:18;;;;;;;6.30;3.28;;;;;;;15.38;100.00;100801.91;5092604;28;20497;-73
2022/10/12 03:15:44;;;;;;;5.90;3.03;;;;;;;14.90;100.00;100731.00;5092549;28;20391;-74
2022/10/12 03:18:09;;;;;;;4.15;2.90;;;;;;;15.30;100.00;100809.03;5092450;28;20490;-74
2022/10/12 03:20:35;;;;;;;3.70;2.88;;;;;;;15.05;100.00;100736.47;5092344;28;20604;-74
2022/10/12 03:23:00;;;;;;;6.70;3.15;;;;;;;15.02;100.00;100745.94;5091696;28;20043;-75
2022/10/12 03:25:26;;;;;;;4.47;3.08;;;;;;;15.14;100.00;100796.75;5092316;28;20039;-74
2022/10/12 03:27:51;;;;;;;4.32;2.97;;;;;;;15.26;100.00;100796.34;5091924;28;20093;-78
2022/10/12 03:30:16;;;;;;;6.13;3.45;;;;;;;14.88;100.00;100759.22;5090895;28;20127;-74
2022/10/12 03:32:42;;;;;;;5.90;3.28;;;;;;;14.90;100.00;100764.28;5090511;28;20484;-76
2022/10/12 03:35:08;;;;;;;8.23;3.28;;;;;;;15.41;100.00;100735.16;5091116;28;20507;-75
2022/10/12 03:37:33;;;;;;;9.77;3.70;;;;;;;14.74;100.00;100716.16;5108738;28;20524;-76
2022/10/12 03:39:59;;;;;;;8.95;3.50;;;;;;;15.03;100.00;100794.59;5110757;28;20612;-76
2022/10/12 03:42:24;;;;;;;6.05;3.20;;;;;;;15.28;100.00;100810.78;5111550;28;20115;-76
2022/10/12 03:44:49;;;;;;;9.82;3.60;;;;;;;15.25;100.00;100817.75;5112110;28;20039;-79
2022/10/12 03:47:15;;;;;;;7.97;4.32;;;;;;;14.96;100.00;100813.56;5111782;28;20108;-82
2022/10/12 03:49:40;;;;;;;6.13;3.75;;;;;;;14.54;100.00;100743.28;5111872;28;20028;-81
2022/10/12 03:52:06;;;;;;;7.60;3.10;;;;;;;15.06;100.00;100811.56;5112008;28;20023;-77
2022/10/12 03:54:31;;;;;;;8.70;3.50;;;;;;;14.81;100.00;100815.81;5112715;28;20032;-77
2022/10/12 03:56:57;;;;;;;5.55;3.40;;;;;;;14.71;100.00;100756.38;5112408;28;20031;-77
2022/10/12 03:59:22;;;;;;;6.70;3.13;;;;;;;14.90;100.00;100800.97;5112397;28;20038;-74
2022/10/12 04:01:48;;;;;;;7.30;3.28;;;;;;;15.17;100.00;100812.06;5112269;28;20054;-74
2022/10/12 04:04:13;;;;;;;5.85;2.88;;;;;;;15.33;100.00;100808.91;5110007;28;20032;-75
2022/10/12 04:06:41;;;;;;;6.63;2.95;;;;;;;14.91;100.00;100742.91;5110906;28;20071;-75
2022/10/12 04:09:06;;;;;;;6.72;2.90;;;;;;;15.18;100.00;100811.16;5112382;28;20019;-78
2022/10/12 04:11:31;;;;;;;4.43;2.70;;;;;;;14.88;100.00;100743.00;5112387;28;20027;-75
2022/10/12 04:13:57;;;;;;;10.45;3.63;;;;;;;15.10;100.00;100811.41;5110423;28;20030;-75
2022/10/12 04:16:22;;;;;;;5.15;2.90;;;;;;;15.19;100.00;100813.66;5112723;28;20023;-74
2022/10/12 04:18:48;;;;;;;6.68;2.80;;;;;;;15.07;100.00;100805.56;5111575;28;20405;-74
2022/10/12 04:21:15;;;;;;;4.45;2.90;;;;;;;14.88;100.00;100754.09;5110094;28;20028;-74
2022/10/12 04:23:41;;;;;;;7.82;3.00;;;;;;;14.65;100.00;100769.38;5109801;28;20046;-75
2022/10/12 04:26:07;;;;;;;9.73;3.30;;;;;;;14.91;100.00;100789.00;5112357;28;20405;-70
2022/10/12 04:28:33;;;;;;;10.43;3.08;;;;;;;14.84;100.00;100797.75;5111184;28;20032;-76
2022/10/12 04:30:59;;;;;;;7.03;3.00;;;;;;;14.59;100.00;100714.09;5099754;28;20024;-75
2022/10/12 04:33:24;;;;;;;10.93;3.05;;;;;;;14.94;100.00;100804.25;5091117;28;20032;-75
2022/10/12 04:35:50;;;;;;;7.90;3.13;;;;;;;15.04;100.00;100793.69;5092887;28;20119;-74
2022/10/12 04:38:15;;;;;;;9.75;3.25;;;;;;;14.69;100.00;100733.41;5100194;28;20085;-77
2022/10/12 04:40:46;;;;;;;7.28;3.38;;;;;;;14.60;100.00;100766.09;5110228;28;20047;-75
2022/10/12 04:43:11;;;;;;;15.05;4.32;;;;;;;15.53;100.00;100800.56;5106944;28;20157;-73
2022/10/12 04:45:37;;;;;;;13.00;3.53;;;;;;;15.39;100.00;100808.69;5089707;28;20482;-76
2022/10/12 04:48:02;;;;;;;14.18;3.83;;;;;;;15.01;100.00;100760.50;5089506;28;20119;-73
2022/10/12 04:50:28;;;;;;;9.98;3.65;;;;;;;15.19;100.00;100817.97;5090839;28;20120;-75
2022/10/12 04:52:53;;;;;;;7.53;3.83;;;;;;;15.22;100.00;100826.38;5090373;28;20034;-74
2022/10/12 04:55:19;;;;;;;10.25;3.83;;;;;;;14.87;100.00;100783.16;5090736;28;20118;-75
2022/10/12 04:57:44;;;;;;;12.73;4.10;;;;;;;15.13;100.00;100829.22;5091192;28;20038;-75
2022/10/12 05:00:10;;;;;;;10.52;4.55;;;;;;;14.89;100.00;100817.25;5091229;28;20516;-74
2022/10/12 05:02:35;;;;;;;13.40;4.60;;;;;;;14.78;100.00;100786.84;5091585;28;20483;-76
2022/10/12 05:05:01;;;;;;;18.17;6.10;;;;;;;14.63;100.00;100763.47;5091500;28;20081;-77
2022/10/12 05:07:26;;;;;;;15.90;6.18;;;;;;;14.75;100.00;100811.72;5091439;28;20027;-76
2022/10/12 05:09:52;;;;;;;12.77;6.00;;;;;;;14.42;100.00;100752.16;5091533;28;20032;-75
2022/10/12 05:12:18;;;;;;;10.60;5.40;;;;;;;14.90;100.00;100834.25;5089587;28;20418;-74
2022/10/12 05:14:43;;;;;;;15.07;5.25;;;;;;;14.84;100.00;100818.25;5090820;28;20043;-74
2022/10/12 05:17:09;;;;;;;12.90;4.82;;;;;;;14.60;100.00;100763.53;5091018;28;20024;-74
2022/10/12 05:19:35;;;;;;;13.02;5.57;;;;;;;15.00;100.00;100799.78;5090781;28;20030;-75
2022/10/12 05:22:00;;;;;;;11.50;5.10;;;;;;;14.81;100.00;100772.28;5090640;28;20058;-76
2022/10/12 05:24:26;;;;;;;13.43;5.50;;;;;;;15.30;100.00;100834.63;5091062;28;20039;-75
2022/10/12 05:26:51;;;;;;;15.50;4.88;;;;;;;15.11;100.00;100802.84;5095093;28;20035;-75
2022/10/12 05:29:17;;;;;;;15.80;5.00;;;;;;;15.60;100.00;100828.50;5093747;28;20036;-75
2022/10/12 05:31:42;;;;;;;13.00;4.93;;;;;;;15.49;100.00;100853.66;5093864;28;20648;-75
2022/10/12 05:34:07;;;;;;;14.02;4.90;;;;;;;15.37;100.00;100792.53;5094524;28;20056;-75
2022/10/12 05:36:33;;;;;;;16.83;5.28;;;;;;;15.65;100.00;100850.59;5093136;28;20406;-75
2022/10/12 05:38:58;;;;;;;12.82;5.18;;;;;;;15.56;100.00;100801.31;5093818;28;20410;-74
2022/10/12 05:41:24;;;;;;;17.38;5.47;;;;;;;15.79;100.00;100843.22;5094533;28;20135;-75
2022/10/12 05:43:49;;;;;;;12.23;4.82;;;;;;;15.49;100.00;100815.22;5094424;28;20039;-74
2022/10/12 05:46:14;;;;;;;11.45;4.53;;;;;;;16.00;100.00;100875.81;5094799;28;20075;-75
2022/10/12 05:48:40;;;;;;;16.20;9.25;;;;;;;15.42;100.00;100818.03;5094952;28;20090;-74
2022/10/12 05:51:05;;;;;;;13.35;6.82;;;;;;;15.80;100.00;100855.16;5094477;28;20513;-75
2022/10/12 05:53:31;;;;;;;12.13;6.65;;;;;;;15.85;100.00;100877.19;5094527;28;20085;-75
2022/10/12 05:55:58;;;;;;;10.10;6.25;;;;;;;15.71;100.00;100809.34;5094598;28;20028;-75
2022/10/12 05:58:26;;;;;;;23.35;6.28;;;;;;;15.75;100.00;100829.69;5094354;28;20062;-75
2022/10/12 06:00:52;;;;;;;14.63;6.38;;;;;;;15.56;100.00;100820.97;5094123;28;20383;-75
2022/10/12 06:03:18;;;;;;;18.80;6.45;;;;;;;16.27;100.00;100903.03;5094074;28;20462;-75
2022/10/12 06:05:43;;;;;;;19.20;5.70;;;;;;;16.45;100.00;100904.94;5093918;28;20031;-76
2022/10/12 06:08:09;;;;;;;15.32;6.75;;;;;;;16.21;100.00;100911.81;5094237;28;20039;-75
2022/10/12 06:10:36;;;;;;;15.70;6.60;;;;;;;16.09;100.00;100909.69;5093186;28;20028;-75
2022/10/12 06:13:02;;;;;;;23.35;6.97;;;;;;;16.22;100.00;100897.25;5093910;28;20478;-75
2022/10/12 06:15:27;;;;;;;19.65;4.60;;;;;;;16.40;100.00;100899.16;5094046;28;20042;-75
2022/10/12 06:17:53;;;;;;;14.68;4.60;;;;;;;16.35;100.00;100907.00;5094166;28;20036;-75
2022/10/12 06:20:18;;;;;;;11.80;3.92;;;;;;;16.47;100.00;100880.88;5093148;28;20438;-75
2022/10/12 06:22:43;;;;;;;12.57;3.42;;;;;;;15.98;100.00;100839.97;5094314;28;20119;-74
2022/10/12 06:25:09;;;;;;;16.77;3.65;;;;;;;16.08;100.00;100861.00;5094077;28;20480;-75
2022/10/12 06:27:34;;;;;;;10.07;3.83;;;;;;;16.01;100.00;100854.38;5093548;28;20060;-77
2022/10/12 06:30:01;;;;;;;13.73;4.28;;;;;;;16.67;100.00;100910.97;5093716;28;20046;-75
2022/10/12 06:32:26;;;;;;;12.70;3.47;;;;;;;16.93;100.00;100915.97;5093712;28;20111;-75
2022/10/12 06:34:52;;;;;;;12.95;3.40;;;;;;;16.67;100.00;100882.72;5092204;28;20714;-76
2022/10/12 06:37:17;;;;;;;8.48;4.00;;;;;;;16.76;100.00;100877.22;5092287;28;20367;-75
2022/10/12 06:39:42;;;;;;;12.82;3.83;;;;;;;16.65;100.00;100873.41;5092247;28;20063;-74
2022/10/12 06:42:09;;;;;;;10.25;4.57;;;;;;;17.10;100.00;100928.13;5093048;28;20024;-73
2022/10/12 06:44:35;;;;;;;9.95;4.97;;;;;;;16.73;100.00;100869.66;5092074;28;20043;-74
2022/10/12 06:47:00;;;;;;;9.30;3.90;;;;;;;17.10;100.00;100857.00;5092910;28;20028;-74
2022/10/12 06:49:26;;;;;;;11.90;4.05;;;;;;;17.02;100.00;100882.19;5092786;28;20081;-74
2022/10/12 06:51:51;;;;;;;14.18;4.35;;;;;;;17.47;100.00;100887.19;5093299;28;20024;-77
2022/10/12 06:54:17;;;;;;;14.27;4.30;;;;;;;17.19;100.00;100933.72;5093059;28;20486;-76
2022/10/12 06:56:43;;;;;;;8.40;3.45;;;;;;;17.39;100.00;100922.66;5091963;28;20193;-76
2022/10/12 06:59:11;;;;;;;13.57;3.30;;;;;;;17.75;100.00;100915.19;5092394;28;20028;-76
2022/10/12 07:01:37;;;;;;;11.50;3.63;;;;;;;17.59;100.00;100876.41;5091766;28;20020;-76
2022/10/12 07:04:02;;;;;;;10.00;2.88;;;;;;;17.23;100.00;100880.50;5091449;28;20100;-77
2022/10/12 07:06:28;;;;;;;7.25;2.30;;;;;;;17.33;100.00;100890.31;5093110;28;20028;-74
2022/10/12 07:08:54;;;;;;;5.07;2.47;;;;;;;17.68;100.00;100942.06;5092577;28;20177;-75
2022/10/12 07:11:19;;;;;;;5.00;1.20;;;;;;;17.13;100.00;100886.91;5091323;28;20528;-74
2022/10/12 07:13:44;;;;;;;3.85;1.10;;;;;;;17.88;100.00;100931.78;5092689;28;20028;-75
2022/10/12 07:16:10;;;;;;;3.78;1.20;;;;;;;18.22;100.00;100920.88;5092603;28;20028;-75
2022/10/12 07:18:35;;;;;;;3.15;1.20;;;;;;;17.93;100.00;100927.25;5091080;28;20406;-75
2022/10/12 07:21:01;;;;;;;4.55;1.17;;;;;;;17.86;100.00;100920.72;5091294;28;20032;-75
2022/10/12 07:23:29;;;;;;;4.45;1.10;;;;;;;17.59;100.00;100844.75;5092548;28;20093;-75
2022/10/12 07:25:54;;;;;;;5.43;1.10;;;;;;;17.97;100.00;100924.50;5092677;28;20111;-74
2022/10/12 07:28:20;;;;;;;2.40;0.90;;;;;;;17.54;100.00;100867.22;5092169;28;20034;-75
2022/10/12 07:30:46;;;;;;;2.75;0.90;;;;;;;18.01;100.00;100907.19;5092731;28;20032;-75
2022/10/12 07:33:12;;;;;;;4.70;1.10;;;;;;;18.03;100.00;100929.38;5092552;28;20409;-75
2022/10/12 07:35:37;;;;;;;4.55;1.10;;;;;;;17.71;100.00;100880.19;5092573;28;20038;-74
2022/10/12 07:38:03;;;;;;;3.53;0.82;;;;;;;17.54;100.00;100854.38;5092088;28;20035;-74
2022/10/12 07:40:29;;;;;;;2.63;1.00;;;;;;;17.96;100.00;100925.41;5091955;28;20411;-74
2022/10/12 07:42:55;;;;;;;3.17;1.10;;;;;;;17.81;100.00;100866.88;5090700;28;20020;-75
2022/10/12 07:45:21;;;;;;;1.52;0.80;;;;;;;18.06;100.00;100874.38;5091804;28;20040;-74
2022/10/12 07:47:46;;;;;;;4.03;0.95;;;;;;;17.84;100.00;100891.66;5091777;28;20027;-74
2022/10/12 07:50:12;;;;;;;5.35;1.48;;;;;;;18.07;100.00;100892.31;5091780;28;20035;-73
2022/10/12 07:52:37;;;;;;;3.25;1.00;;;;;;;18.19;100.00;100921.81;5092194;28;20032;-75
2022/10/12 07:55:03;;;;;;;3.42;1.30;;;;;;;18.22;100.00;100913.13;5091284;28;20417;-75
2022/10/12 07:57:28;;;;;;;4.18;1.25;;;;;;;17.92;100.00;100918.72;5092190;28;20028;-79
2022/10/12 07:59:54;;;;;;;5.15;1.33;;;;;;;17.93;100.00;100880.94;5092873;28;20111;-77
2022/10/12 08:02:20;;;;;;;5.03;1.90;;;;;;;18.35;100.00;100879.03;5091509;28;20027;-76
2022/10/12 08:04:46;;;;;;;2.88;1.42;;;;;;;18.30;100.00;100926.50;5091989;28;20130;-74
2022/10/12 08:07:11;;;;;;;8.90;5.20;;;;;;;18.40;100.00;100897.69;5091901;28;20063;-76
2022/10/12 08:09:36;;;;;;;5.45;2.10;;;;;;;18.84;100.00;100918.84;5091986;28;20414;-74
2022/10/12 08:12:03;;;;;;;9.32;2.35;;;;;;;18.63;100.00;100922.44;5092086;28;20031;-74
2022/10/12 08:14:28;;;;;;;6.25;2.38;;;;;;;18.28;100.00;100924.00;5090340;28;20480;-74
2022/10/12 08:16:53;;;;;;;11.85;4.00;;;;;;;18.03;100.00;100875.34;5091792;28;20115;-75
2022/10/12 08:19:19;;;;;;;3.78;1.80;;;;;;;18.71;100.00;100928.91;5091999;28;20111;-74
2022/10/12 08:21:44;;;;;;;4.85;1.27;;;;;;;18.15;100.00;100876.53;5091158;28;20024;-75
2022/10/12 08:24:10;;;;;;;8.20;3.10;;;;;;;18.28;100.00;100872.50;5090524;28;20042;-74
2022/10/12 08:26:36;;;;;;;2.97;1.35;;;;;;;18.01;100.00;100890.00;5092828;28;20479;-78
2022/10/12 08:29:03;;;;;;;6.90;1.17;;;;;;;18.75;100.00;100925.28;5092263;28;20036;-76
2022/10/12 08:31:29;;;;;;;3.83;1.58;;;;;;;18.82;100.00;100926.66;5092065;28;20032;-75
2022/10/12 08:33:56;;;;;;;5.88;1.98;;;;;;;18.56;100.00;100883.25;5090805;28;20035;-74
2022/10/12 08:36:21;;;;;;;3.70;1.80;;;;;;;18.41;100.00;100904.53;5092033;28;20024;-75
2022/10/12 08:38:53;;;;;;;7.47;2.53;;;;;;;18.62;100.00;100872.66;5090384;28;20032;-75
2022/10/12 08:41:35;;;;;;;2.38;1.40;;;;;;;18.26;100.00;100882.03;5090420;28;20048;-75
2022/10/12 08:44:37;;;;;;;7.47;3.60;;;;;;;18.73;100.00;100865.28;5091388;28;20109;-74
2022/10/12 08:47:12;;;;;;;17.02;10.73;;;;;;;18.98;100.00;100930.19;5090845;28;20042;-75
2022/10/12 08:49:40;;;;;;;7.03;2.30;;;;;;;19.07;100.00;100925.53;5090678;28;20024;-74
2022/10/12 08:52:19;;;;;;;2.58;1.40;;;;;;;18.91;100.00;100885.03;5091046;28;20032;-75
2022/10/12 08:54:45;;;;;;;5.40;1.70;;;;;;;19.07;100.00;100890.28;5091536;28;20449;-74
2022/10/12 08:57:16;;;;;;;6.10;2.15;;;;;;;19.18;100.00;100933.56;5090265;28;20036;-75
2022/10/12 08:59:41;;;;;;;5.25;1.83;;;;;;;18.51;100.00;100874.06;5090493;28;20572;-76
2022/10/12 09:02:57;;;;;;;6.18;1.90;;;;;;;19.19;100.00;100938.66;5095696;28;20024;-75
2022/10/12 09:05:33;;;;;;;3.03;1.40;;;;;;;19.22;100.00;100930.78;5013348;28;20152;-76
2022/10/12 09:08:06;;;;;;;6.28;1.83;;;;;;;18.92;100.00;100893.56;5013409;28;20054;-77
2022/10/12 09:10:54;;;;;;;4.11;1.74;;;;;;;19.29;100.00;100872.00;4643037;28;10002909;-76
2022/10/12 09:13:41;;;;;;;4.55;1.50;;;;;;;19.74;100.00;100931.66;5090551;28;20035;-73
2022/10/12 09:16:10;;;;;;;6.20;1.95;;;;;;;19.47;100.00;100931.28;5090621;28;20036;-74
2022/10/12 09:18:48;;;;;;;5.20;1.38;;;;;;;20.04;100.00;100930.09;5092243;28;20056;-72
2022/10/12 09:21:20;;;;;;;6.80;1.90;;;;;;;20.22;100.00;100929.19;5091800;28;20044;-72
2022/10/12 09:23:46;;;;;;;3.53;1.50;;;;;;;19.53;100.00;100873.41;5091846;28;20040;-72
2022/10/12 09:26:12;;;;;;;7.28;1.75;;;;;;;19.92;100.00;100937.63;5092145;28;20104;-72
2022/10/12 09:28:44;;;;;;;3.40;1.77;;;;;;;19.95;100.00;100885.84;5074230;28;20075;-71
2022/10/12 09:31:09;;;;;;;4.03;1.77;;;;;;;21.18;100.00;100924.78;5091907;28;20465;-71
2022/10/12 09:34:03;;;;;;;4.53;1.92;;;;;;;21.35;66.99;100927.25;5074045;28;20129;-72
2022/10/12 09:36:40;;;;;;;2.70;1.50;;;;;;;20.96;60.81;100869.97;5089149;28;20049;-72
2022/10/12 09:39:18;;;;;;;2.28;1.40;;;;;;;21.16;56.87;100924.03;5092598;28;20437;-73
2022/10/12 09:41:45;;;;;;;4.47;1.50;;;;;;;20.88;53.16;100872.19;5091633;28;20055;-73
2022/10/12 09:44:31;;;;;;;4.53;1.70;;;;;;;21.42;50.81;100908.69;5093315;28;20063;-73
2022/10/12 09:47:00;;;;;;;4.80;1.52;;;;;;;21.13;53.70;100898.34;5094125;28;20040;-71
2022/10/12 09:49:41;;;;;;;4.90;1.80;;;;;;;21.01;57.74;100920.56;5098258;28;20119;-72
2022/10/12 09:52:08;;;;;;;7.00;1.73;;;;;;;20.53;69.98;100905.97;5092256;28;20063;-71
2022/10/12 09:54:33;;;;;;;5.20;1.58;;;;;;;20.27;68.60;100914.25;5092637;28;20118;-71
2022/10/12 09:56:59;;;;;;;5.60;1.77;;;;;;;20.43;72.70;100911.69;5093424;28;20131;-72
2022/10/12 09:59:31;;;;;;;2.80;1.50;;;;;;;20.25;67.88;100873.94;5093760;28;20811;-72
2022/10/12 10:02:09;;;;;;;4.50;1.20;;;;;;;21.11;66.71;100918.28;5094229;28;20540;-71
2022/10/12 10:04:36;;;;;;;5.20;1.10;;;;;;;21.86;64.12;100875.06;5092501;28;20028;-72
2022/10/12 10:07:21;;;;;;;3.67;1.30;;;;;;;21.45;65.59;100837.81;5093797;28;20055;-72
2022/10/12 10:10:01;;;;;;;2.70;0.98;;;;;;;21.36;56.39;100900.44;5093842;28;20051;-72
2022/10/12 10:12:27;;;;;;;4.97;1.10;;;;;;;21.99;54.84;100883.72;5093368;28;20055;-72
2022/10/12 10:14:58;;;;;;;5.13;1.00;;;;;;;21.75;55.50;100842.94;5093989;28;20447;-72
2022/10/12 10:17:30;;;;;;;3.50;0.88;;;;;;;22.04;54.04;100832.50;5093546;28;20028;-73
2022/10/12 10:19:57;;;;;;;3.38;1.30;;;;;;;22.86;53.61;100890.34;5093282;28;20177;-71
2022/10/12 10:22:23;;;;;;;3.63;1.20;;;;;;;21.54;55.18;100848.47;5093100;28;20089;-71
2022/10/12 10:24:51;;;;;;;3.53;1.20;;;;;;;22.47;54.35;100887.66;5091646;28;20032;-72
2022/10/12 10:27:36;;;;;;;2.25;1.10;;;;;;;22.42;55.20;100881.94;5093517;28;20063;-71
2022/10/12 10:30:14;;;;;;;7.38;2.05;;;;;;;22.20;56.99;100873.81;5093187;28;20031;-71
2022/10/12 10:32:39;;;;;;;6.00;2.28;;;;;;;22.74;57.13;100861.78;5093184;28;20049;-71
2022/10/12 10:35:11;;;;;;;6.25;1.20;;;;;;;23.07;55.63;100870.81;5093472;28;20031;-72
2022/10/12 10:37:37;;;;;;;;;;;;;;;22.56;56.87;100866.31;5093599;28;20482;-72
2022/10/12 10:40:04;;;;;;;4.97;1.05;;;;;;;21.77;57.78;100865.19;5092787;28;19916;-71
2022/10/12 10:42:32;;;;;;;4.30;1.00;;;;;;;22.15;56.49;100822.28;5093181;28;20028;-70
2022/10/12 10:45:07;;;;;;;2.38;0.88;;;;;;;22.70;54.59;100849.94;5091544;28;20051;-73
2022/10/12 10:47:41;;;;;;;3.03;0.80;;;;;;;22.91;52.82;100848.56;5094470;28;20030;-72
2022/10/12 10:50:26;;;;;;;2.45;1.00;;;;;;;22.21;55.22;100854.75;5093745;28;20028;-73
2022/10/12 10:52:57;;;;;;;3.42;1.15;;;;;;;22.28;54.79;100853.47;5090932;28;20032;-70
2022/10/12 10:55:51;;;;;;;6.65;2.53;;;;;;;22.48;53.17;100823.69;5092165;28;20028;-72
2022/10/12 10:58:38;;;;;;;3.70;2.05;;;;;;;22.92;52.86;100845.03;5091615;28;20466;-72
2022/10/12 11:01:34;;;;;;;4.25;1.90;;;;;;;22.22;50.65;100851.25;5092643;28;20035;-71
2022/10/12 11:04:48;;;;;;;3.47;1.20;;;;;;;22.67;47.36;100838.00;5091589;28;20039;-71
2022/10/12 11:07:34;;;;;;;4.53;1.35;;;;;;;22.34;48.10;100835.75;5092891;28;20114;-74
2022/10/12 11:10:04;;;;;;;3.92;1.10;;;;;;;21.77;47.80;100787.50;5091839;28;20101;-71
2022/10/12 11:12:39;;;;;;;5.07;1.30;;;;;;;22.02;49.46;100795.50;5091110;28;20494;-71
2022/10/12 11:15:19;;;;;;;3.97;1.48;;;;;;;22.65;48.69;100779.38;5092643;28;20062;-71
2022/10/12 11:18:06;;;;;;;2.58;1.10;;;;;;;22.20;46.55;100776.22;5092760;28;20077;-70
2022/10/12 11:21:09;;;;;;;3.25;1.08;;;;;;;22.72;45.43;100827.34;5092385;28;20430;-71
2022/10/12 11:23:55;;;;;;;4.25;1.90;;;;;;;22.14;48.11;100766.22;5091710;28;20020;-71
2022/10/12 11:26:37;;;;;;;5.00;2.60;;;;;;;21.89;49.30;100827.41;5092465;28;20032;-71
2022/10/12 11:29:04;;;;;;;4.53;1.85;;;;;;;21.81;50.08;100794.19;5092246;28;20027;-73